• Join FlightAware (Why Join?)
  • Login
  • US Flag 
08:31AM EDT


 

Airport Tracker/Info


-or-


 

Live Flight TrackerFlight Track Log ✈ UAL4843 ✈ 20-Apr-2013 ✈ KBWI - KCLE

Flight Track Log - Related Links

Times and Time Zones

All times are in EDT time to prevent confusion due to time zone crossing. See the UAL4843 flight status page for this flight to view local times or setup timezone preferences in your user account.

Time Position Orientation Groundspeed Altitude Reporting Facility
EDT Latitude Longitude Course Direction KTS MPH feet Rate Location/Type
02:33PM 39.1833 -76.7333 301° West 146 168 2,100  Level Potomac TRACON
02:35PM 39.2303 -76.8189 305° West 154 177 4,300 1,140 Climbing Washington Center
02:36PM 39.2569 -76.8647 307° West 161 185 5,500 1,200 Climbing Washington Center
02:37PM 39.2772 -76.9161 297° West 166 191 6,700 1,260 Climbing Washington Center
02:38PM 39.3413 -77.0250 301° West  Level Estimated
02:38PM 39.2889 -76.9753 284° West 166 191 8,100  Level Washington Center
02:39PM 39.3050 -77.0267 292° West 166 191 9,600 1,200 Climbing Washington Center
02:40PM 39.3147 -77.0803 283° West 161 185 10,500 900 Climbing Washington Center
02:41PM 39.3286 -77.1317 289° West 161 185 11,500 900 Climbing Washington Center
02:42PM 39.3447 -77.1831 292° West 161 185 12,400 840 Climbing Washington Center
02:43PM 39.3711 -77.2344 304° West 161 185 13,200 720 Climbing Washington Center
02:44PM 39.3975 -77.2836 305° West 161 185 13,900 660 Climbing Washington Center
02:45PM 39.4261 -77.3353 306° West 173 199 14,600 660 Climbing Washington Center
02:46PM 39.4544 -77.3869 305° West 173 199 15,300 660 Climbing Washington Center
02:47PM 39.4850 -77.4414 306° West 178 205 16,000 780 Climbing Washington Center
02:48PM 39.5133 -77.4933 305° West 178 205 16,900 660 Climbing Washington Center
02:49PM 39.5628 -77.5833 305° West 174 200 17,800 540 Climbing Cleveland Center
02:50PM 39.5933 -77.6358 307° West 174 200 18,400 600 Climbing Cleveland Center
02:51PM 39.6197 -77.6886 303° West 174 200 19,000 600 Climbing Cleveland Center
02:52PM 39.6481 -77.7414 305° West 174 200 19,700 480 Climbing Cleveland Center
02:53PM 39.6786 -77.7939 307° West 174 200 20,000 120 Climbing Cleveland Center
02:54PM 39.7114 -77.8519 306° West 186 214 20,000  Level Cleveland Center
02:55PM 39.7419 -77.9156 302° West 198 228 20,000  Level Cleveland Center
02:56PM 39.7789 -77.9817 306° West 208 239 20,000  Level Cleveland Center
02:57PM 39.8117 -78.0481 303° West 213 245 20,000  Level Cleveland Center
02:58PM 39.8486 -78.1114 307° West 213 245 20,000  Level Cleveland Center
02:59PM 39.8853 -78.1750 307° West 213 245 20,000  Level Cleveland Center
03:00PM 39.9219 -78.2361 308° West 218 251 20,000  Level Cleveland Center
03:01PM 39.9483 -78.2947 300° West 213 245 20,000  Level Cleveland Center
03:02PM 39.9828 -78.3558 306° West 208 239 20,000  Level Cleveland Center
03:03PM 40.0194 -78.4169 308° West 208 239 20,000  Level Cleveland Center
03:04PM 40.0561 -78.4783 308° West 208 239 20,000  Level Cleveland Center
03:05PM 40.0906 -78.5422 305° West 215 247 20,000  Level Cleveland Center
03:06PM 40.1250 -78.6011 307° West 215 247 20,000  Level Cleveland Center
03:07PM 40.1594 -78.6653 305° West 215 247 20,000  Level Cleveland Center
03:08PM 40.1939 -78.7294 305° West 215 247 20,000  Level Cleveland Center
03:09PM 40.2325 -78.7908 309° West 215 247 20,000  Level Cleveland Center
03:10PM 40.2689 -78.8525 308° West 215 247 20,000  Level Cleveland Center
03:11PM 40.3031 -78.9197 304° West 215 247 20,000  Level Cleveland Center
03:12PM 40.3372 -78.9814 306° West 215 247 20,000  Level Cleveland Center
03:13PM 40.3736 -79.0433 308° West 215 247 20,000  Level Cleveland Center
03:14PM 40.4078 -79.1053 306° West 215 247 20,000  Level Cleveland Center
03:15PM 40.4419 -79.1672 306° West 215 247 20,000  Level Cleveland Center
03:16PM 40.4761 -79.2292 306° West 215 247 20,000  Level Cleveland Center
03:17PM 40.5122 -79.2942 306° West 215 247 20,000  Level Cleveland Center
03:18PM 40.5483 -79.3564 307° West 215 247 20,000  Level Cleveland Center
03:19PM 40.5867 -79.4239 307° West 215 247 20,000  Level Cleveland Center
03:20PM 40.6206 -79.4861 306° West 215 247 20,000  Level Cleveland Center
03:21PM 40.6525 -79.5486 304° West 215 247 20,000  Level Cleveland Center
03:22PM 40.6864 -79.6111 306° West 215 247 20,000  Level Cleveland Center
03:23PM 40.7389 -79.6542 328° Northwest 215 247 20,000  Level Cleveland Center
03:24PM 40.8058 -79.6861 340° North 232 267 20,000  Level Cleveland Center
03:25PM 40.8686 -79.7211 337° Northwest 238 274 20,000  Level Cleveland Center
03:26PM 40.9356 -79.7531 340° North 245 282 20,000  Level Cleveland Center
03:27PM 41.0003 -79.7853 339° North 250 288 20,000  Level Cleveland Center
03:28PM 41.0653 -79.8175 340° North 250 288 20,000 -300 Level Cleveland Center
03:29PM 41.1175 -79.8472 337° Northwest 250 288 19,500 -780 Descending Cleveland Center
03:30PM 41.1867 -79.8989 331° Northwest 256 295 18,500 -900 Descending Cleveland Center
03:31PM 41.2142 -79.9786 295° West 235 270 17,800 -900 Descending Cleveland Center
03:32PM 41.2375 -80.0639 290° West 229 264 16,800 -960 Descending Cleveland Center
03:33PM 41.2567 -80.1439 288° West 229 264 15,900 -480 Descending Cleveland Center
03:34PM 41.2778 -80.2239 289° West 229 264 15,900 -180 Level Cleveland Center
03:35PM 41.2967 -80.2986 289° West 224 258 15,600 -360 Descending Cleveland Center
03:36PM 41.3136 -80.3758 286° West 224 258 15,200 -540 Descending Cleveland Center
03:37PM 41.3367 -80.4531 292° West 224 258 14,600 -600 Descending Cleveland Center
03:38PM 41.3575 -80.5306 290° West 224 258 14,000 -720 Descending Cleveland Center
03:39PM 41.3764 -80.6081 288° West 224 258 13,200 -780 Descending Cleveland Center
03:40PM 41.3950 -80.6883 287° West 224 258 12,500 -720 Descending Cleveland Center
03:41PM 41.4158 -80.7658 290° West 224 258 11,800 -720 Descending Cleveland Center
03:42PM 41.4344 -80.8461 287° West 224 258 11,100 -720 Descending Cleveland Center
03:43PM 41.4550 -80.9211 290° West 224 258 10,400 -720 Descending Cleveland Center
03:44PM 41.4736 -81.0017 287° West 224 258 9,700 -660 Descending Cleveland Center
03:46PM 41.4836 -81.0931 278° West 213 245 9,000 -360 Descending Cleveland Center
03:47PM 41.4894 -81.1625 276° West 211 243 9,000 -360 Level Cleveland Center
03:47PM 41.4953 -81.2264 277° West 219 252 8,400 -960 Descending Cleveland Center
03:48PM 41.4992 -81.3094 274° West 219 252 7,200 -1,200 Descending Cleveland Center
03:49PM 41.5069 -81.3872 278° West 214 246 6,100 -600 Descending Cleveland Center
03:50PM 41.5167 -81.4650 280° West 219 252 6,000 -300 Descending Cleveland Center
03:51PM 41.5206 -81.5039 278° West 215 247 5,700 -840 Descending Cleveland Center
03:51PM 41.5244 -81.5428 278° West 219 252 5,200 -900 Descending Cleveland Center
03:52PM 41.5283 -81.5706 281° West 205 236 4,900 -1,020 Descending Cleveland Center
03:52PM 41.5342 -81.6178 279° West 214 246 4,200 -1,020 Descending Cleveland Center
03:53PM 41.5169 -81.6897 252° West 209 241 3,200 -720 Descending Cleveland Center
03:54PM 41.4789 -81.7444 227° Southwest 204 235 2,800 -720 Descending Cleveland Center
03:56PM 41.4447 -81.8019 232° Southwest 152 175 1,700 -1,020 Descending Cleveland Center
03:58PM 41.4000 -81.8500 255° West  Level FlightAware Approximate
04:05PM 41.4094 -81.8547 255° West  Level Estimated